Time;durP1;ratioP1;P1;durP2;ratioP2;P2;SDS_P1;SDS_P2;PMS_P1;PMS_P2;Temp;Humidity;BMP_temperature;BMP_pressure;BME280_temperature;BME280_humidity;BME280_pressure;Samples;Min_cycle;Max_cycle;Signal;HPM_P1;HPM_P2
2022/07/13 00:00:37;;;;;;;2.05;0.88;;;26.50;96.70;;;;;;4876370;29;20057;-84
2022/07/13 00:03:06;;;;;;;3.55;0.70;;;26.50;96.70;;;;;;4879051;29;20140;-84
2022/07/13 00:05:38;;;;;;;3.47;0.80;;;26.60;96.70;;;;;;4871432;29;20053;-81
2022/07/13 00:08:05;;;;;;;3.55;1.10;;;26.50;96.70;;;;;;4877300;29;20520;-84
2022/07/13 00:10:33;;;;;;;2.55;0.95;;;26.40;96.70;;;;;;4880033;29;20053;-84
2022/07/13 00:13:01;;;;;;;1.65;0.77;;;26.40;96.70;;;;;;4863576;29;20045;-84
2022/07/13 00:15:29;;;;;;;2.85;0.70;;;26.40;96.70;;;;;;4874646;29;20579;-85
2022/07/13 00:17:57;;;;;;;1.90;0.75;;;26.40;96.70;;;;;;4880226;29;20405;-84
2022/07/13 00:20:27;;;;;;;1.95;0.70;;;26.30;96.70;;;;;;4875471;29;20053;-84
2022/07/13 00:22:55;;;;;;;2.80;0.80;;;26.10;96.70;;;;;;4873390;29;20064;-84
2022/07/13 00:25:24;;;;;;;1.30;0.80;;;26.20;96.70;;;;;;4863322;29;20109;-84
2022/07/13 00:27:52;;;;;;;4.80;0.85;;;26.10;96.70;;;;;;4874530;29;20113;-84
2022/07/13 00:30:19;;;;;;;1.08;0.73;;;26.00;96.70;;;;;;4851913;29;20453;-84
2022/07/13 00:32:47;;;;;;;1.70;0.70;;;26.10;96.70;;;;;;4883320;29;20053;-83
2022/07/13 00:35:15;;;;;;;1.92;0.70;;;26.20;96.70;;;;;;4891045;29;20139;-84
2022/07/13 00:37:45;;;;;;;4.00;0.80;;;26.20;96.70;;;;;;4860492;29;20145;-84
2022/07/13 00:40:14;;;;;;;1.02;0.57;;;26.20;96.70;;;;;;4886434;29;20068;-82
2022/07/13 00:42:43;;;;;;;1.58;0.73;;;26.10;96.70;;;;;;4873763;29;20041;-83
2022/07/13 00:45:11;;;;;;;1.15;0.80;;;26.10;96.70;;;;;;4890378;29;20045;-83
2022/07/13 00:47:39;;;;;;;3.47;0.98;;;26.20;96.70;;;;;;4859517;29;20045;-82
2022/07/13 00:50:08;;;;;;;3.20;1.02;;;26.20;96.70;;;;;;4875623;29;20140;-82
2022/07/13 00:52:38;;;;;;;1.50;0.70;;;25.90;96.70;;;;;;4875019;29;20404;-82
2022/07/13 00:55:09;;;;;;;2.00;0.90;;;25.80;96.70;;;;;;4874965;29;20053;-82
2022/07/13 00:57:37;;;;;;;1.10;1.00;;;25.80;96.70;;;;;;4856293;29;20572;-82
2022/07/13 01:00:09;;;;;;;0.73;0.60;;;25.70;96.70;;;;;;4875268;29;20045;-82
2022/07/13 01:02:38;;;;;;;1.98;0.82;;;25.80;96.70;;;;;;4874798;29;20049;-82
2022/07/13 01:05:07;;;;;;;3.05;0.90;;;25.70;96.70;;;;;;4874839;29;20159;-83
2022/07/13 01:07:35;;;;;;;5.43;0.85;;;25.80;96.70;;;;;;4875641;29;20494;-82
2022/07/13 01:10:06;;;;;;;2.90;1.08;;;25.80;96.70;;;;;;4876075;29;20303;-83
2022/07/13 01:12:36;;;;;;;1.75;1.00;;;25.60;96.70;;;;;;4874819;29;20041;-82
2022/07/13 01:15:05;;;;;;;1.92;1.10;;;25.70;96.70;;;;;;4873986;29;20619;-83
2022/07/13 01:17:35;;;;;;;0.85;0.80;;;25.70;96.70;;;;;;4869270;29;20065;-80
2022/07/13 01:20:15;;;;;;;3.03;1.10;;;25.60;96.70;;;;;;4872251;29;20575;-79
2022/07/13 01:22:45;;;;;;;1.77;0.82;;;25.70;96.70;;;;;;4868684;29;20068;-80
2022/07/13 01:25:15;;;;;;;1.48;0.88;;;25.70;96.70;;;;;;4871932;29;20590;-79
2022/07/13 01:27:45;;;;;;;1.58;0.70;;;25.80;96.70;;;;;;4871167;29;20057;-79
2022/07/13 01:30:14;;;;;;;2.55;0.65;;;25.80;96.70;;;;;;4873047;29;20153;-80
2022/07/13 01:32:43;;;;;;;0.93;0.80;;;25.80;96.70;;;;;;4873254;29;20093;-80
2022/07/13 01:35:12;;;;;;;4.13;0.80;;;25.70;96.70;;;;;;4872507;29;20132;-81
2022/07/13 01:37:41;;;;;;;1.23;0.70;;;25.80;96.70;;;;;;4873381;29;20057;-81
2022/07/13 01:40:11;;;;;;;1.00;0.88;;;25.70;96.70;;;;;;4873090;29;20106;-81
2022/07/13 01:42:43;;;;;;;0.82;0.57;;;25.80;96.70;;;;;;4887515;29;20060;-81
2022/07/13 01:45:12;;;;;;;3.53;1.00;;;25.70;96.70;;;;;;4872036;29;20053;-80
2022/07/13 01:47:40;;;;;;;1.60;0.70;;;25.70;96.70;;;;;;4875728;29;20041;-80
2022/07/13 01:50:10;;;;;;;2.15;0.80;;;25.70;96.70;;;;;;4873377;29;20067;-82
2022/07/13 01:52:38;;;;;;;2.45;0.85;;;25.60;96.70;;;;;;4889277;29;20087;-82
2022/07/13 01:55:08;;;;;;;4.50;0.93;;;25.60;96.70;;;;;;4886925;29;20422;-82
2022/07/13 01:57:37;;;;;;;2.40;0.85;;;25.50;96.70;;;;;;4889320;29;20531;-81
2022/07/13 02:00:10;;;;;;;1.33;0.90;;;25.30;96.70;;;;;;4873197;29;20052;-82
2022/07/13 02:02:41;;;;;;;2.72;1.10;;;25.30;96.70;;;;;;4866528;29;20052;-82
2022/07/13 02:05:13;;;;;;;3.90;0.80;;;25.40;96.70;;;;;;4872939;29;20164;-82
2022/07/13 02:07:41;;;;;;;2.53;1.00;;;25.50;96.70;;;;;;4875938;29;20080;-82
2022/07/13 02:10:11;;;;;;;1.45;0.98;;;25.40;96.70;;;;;;4860685;29;20133;-82
2022/07/13 02:12:40;;;;;;;3.17;0.93;;;25.40;96.70;;;;;;4862295;29;20064;-84
2022/07/13 02:15:11;;;;;;;1.75;0.88;;;25.40;96.70;;;;;;4873601;29;20056;-86
2022/07/13 02:17:39;;;;;;;3.08;0.80;;;25.40;96.70;;;;;;4874215;29;20147;-86
2022/07/13 02:20:08;;;;;;;2.72;1.00;;;25.40;96.70;;;;;;4873900;29;20097;-86
2022/07/13 02:22:41;;;;;;;2.63;1.08;;;25.30;96.70;;;;;;4875070;29;20075;-85
2022/07/13 02:25:09;;;;;;;3.22;1.08;;;25.20;96.70;;;;;;4874121;29;20047;-83
2022/07/13 02:27:39;;;;;;;2.60;1.00;;;25.00;96.70;;;;;;4859255;29;20052;-84
2022/07/13 02:30:11;;;;;;;2.28;0.88;;;25.00;96.70;;;;;;4873439;29;20063;-84
2022/07/13 02:32:39;;;;;;;2.17;0.95;;;25.20;96.70;;;;;;4881908;29;20055;-84
2022/07/13 02:35:08;;;;;;;2.20;1.10;;;25.20;96.70;;;;;;4873323;29;20041;-82
2022/07/13 02:37:36;;;;;;;1.40;0.80;;;25.10;96.70;;;;;;4855366;29;20061;-86
2022/07/13 02:40:05;;;;;;;2.72;0.70;;;25.00;96.70;;;;;;4858089;29;20532;-84
2022/07/13 02:42:33;;;;;;;2.05;0.68;;;25.10;96.70;;;;;;4873414;29;20382;-84
2022/07/13 02:45:01;;;;;;;1.52;0.80;;;25.10;96.70;;;;;;4874519;29;20076;-84
2022/07/13 02:47:30;;;;;;;1.20;0.75;;;25.10;96.70;;;;;;4873078;29;20097;-84
2022/07/13 02:50:00;;;;;;;1.02;0.70;;;25.00;96.70;;;;;;4870784;29;20248;-82
2022/07/13 02:52:28;;;;;;;1.63;0.70;;;25.00;96.70;;;;;;4888780;29;20053;-83
2022/07/13 02:54:58;;;;;;;1.13;0.60;;;25.00;96.70;;;;;;4867232;29;20124;-83
2022/07/13 02:57:27;;;;;;;1.50;0.60;;;25.10;96.70;;;;;;4873616;29;20559;-83
2022/07/13 02:59:58;;;;;;;5.72;1.23;;;24.90;96.70;;;;;;4858539;29;20065;-84
2022/07/13 03:02:27;;;;;;;0.88;0.70;;;25.00;96.70;;;;;;4873198;29;20041;-83
2022/07/13 03:04:57;;;;;;;1.00;0.70;;;24.90;96.70;;;;;;4873238;29;20048;-83
2022/07/13 03:07:26;;;;;;;1.45;1.02;;;24.90;96.70;;;;;;4875440;29;20052;-84
2022/07/13 03:09:54;;;;;;;1.00;0.75;;;24.90;96.70;;;;;;4879124;29;20483;-84
2022/07/13 03:12:26;;;;;;;1.65;0.77;;;24.80;96.70;;;;;;4871965;29;20049;-85
2022/07/13 03:14:54;;;;;;;1.33;0.90;;;24.90;96.70;;;;;;4871495;29;20091;-85
2022/07/13 03:17:23;;;;;;;0.75;0.68;;;25.00;96.70;;;;;;4874175;29;20074;-85
2022/07/13 03:19:51;;;;;;;3.22;1.10;;;24.60;96.70;;;;;;4871546;29;20527;-85
2022/07/13 03:22:21;;;;;;;0.85;0.70;;;24.30;96.70;;;;;;4864641;29;20065;-80
2022/07/13 03:24:49;;;;;;;1.38;0.90;;;24.30;96.70;;;;;;4873474;29;20049;-85
2022/07/13 03:27:19;;;;;;;1.38;0.80;;;24.30;96.70;;;;;;4858096;29;20084;-85
2022/07/13 03:29:47;;;;;;;1.90;0.88;;;24.50;96.70;;;;;;4857700;29;20084;-86
2022/07/13 03:32:15;;;;;;;1.10;0.90;;;24.70;96.70;;;;;;4873173;29;20140;-85
2022/07/13 03:34:43;;;;;;;1.77;0.90;;;24.70;96.70;;;;;;4858192;29;20068;-85
2022/07/13 03:37:13;;;;;;;2.20;1.00;;;24.60;96.70;;;;;;4858248;29;20045;-85
2022/07/13 03:39:43;;;;;;;1.42;1.20;;;24.60;96.70;;;;;;4857735;29;20045;-85
2022/07/13 03:42:10;;;;;;;2.00;0.85;;;24.80;96.70;;;;;;4874384;29;20120;-86
2022/07/13 03:44:38;;;;;;;2.97;1.30;;;24.70;96.70;;;;;;4873045;29;20512;-86
2022/07/13 03:47:06;;;;;;;1.27;0.90;;;24.70;96.70;;;;;;4857457;29;20512;-84
2022/07/13 03:49:35;;;;;;;2.00;1.13;;;24.60;96.70;;;;;;4872538;29;20416;-84
2022/07/13 03:52:03;;;;;;;1.50;1.08;;;24.60;96.70;;;;;;4857320;29;20045;-84
2022/07/13 03:54:31;;;;;;;2.40;1.10;;;24.60;96.70;;;;;;4870484;29;20059;-84
2022/07/13 03:57:00;;;;;;;3.55;1.10;;;24.60;96.70;;;;;;4857610;29;20045;-83
2022/07/13 03:59:28;;;;;;;1.23;0.63;;;24.50;96.70;;;;;;4868946;29;20626;-79
2022/07/13 04:01:56;;;;;;;1.98;0.85;;;24.60;96.70;;;;;;4886778;29;20136;-79
2022/07/13 04:04:26;;;;;;;1.65;1.00;;;24.60;96.70;;;;;;4858071;29;20061;-81
2022/07/13 04:06:57;;;;;;;2.25;0.85;;;24.60;96.70;;;;;;4884624;29;20083;-81
2022/07/13 04:09:25;;;;;;;1.52;1.00;;;24.60;96.70;;;;;;4858536;29;20139;-80
2022/07/13 04:11:53;;;;;;;2.20;0.90;;;24.40;96.70;;;;;;4867817;29;20428;-81
2022/07/13 04:14:23;;;;;;;2.55;0.85;;;24.50;96.70;;;;;;4872314;29;20448;-81
2022/07/13 04:16:56;;;;;;;1.88;1.17;;;24.40;96.70;;;;;;4873594;29;20064;-83
2022/07/13 04:19:27;;;;;;;1.48;1.20;;;24.10;96.70;;;;;;4857634;29;20160;-84
2022/07/13 04:21:55;;;;;;;2.22;1.17;;;24.10;96.70;;;;;;4876120;29;20037;-83
2022/07/13 04:24:25;;;;;;;2.35;1.20;;;24.20;96.70;;;;;;4891064;29;20063;-83
2022/07/13 04:26:54;;;;;;;2.88;1.30;;;24.30;96.70;;;;;;4882821;29;20056;-84
2022/07/13 04:29:24;;;;;;;1.55;1.10;;;24.40;96.70;;;;;;4875854;29;20056;-84
2022/07/13 04:31:53;;;;;;;1.40;1.10;;;24.50;96.70;;;;;;4891180;29;20121;-84
2022/07/13 04:34:21;;;;;;;1.45;0.93;;;24.30;96.70;;;;;;4875631;29;20124;-84
2022/07/13 04:36:49;;;;;;;2.75;1.33;;;24.30;96.70;;;;;;4891588;29;20133;-84
2022/07/13 04:39:17;;;;;;;5.45;1.75;;;24.40;96.70;;;;;;4876100;29;20045;-84
2022/07/13 04:41:46;;;;;;;1.35;1.00;;;24.50;96.70;;;;;;4874491;29;20048;-84
2022/07/13 04:44:14;;;;;;;2.13;1.20;;;24.50;96.70;;;;;;4860748;29;20108;-83
2022/07/13 04:46:44;;;;;;;3.97;1.17;;;24.40;96.70;;;;;;4875406;29;20101;-83
2022/07/13 04:49:13;;;;;;;1.00;0.90;;;24.40;96.70;;;;;;4875257;29;20060;-83
2022/07/13 04:51:42;;;;;;;3.60;1.02;;;24.50;96.70;;;;;;4875860;29;20071;-83
2022/07/13 04:54:11;;;;;;;4.32;1.02;;;24.30;96.70;;;;;;4856475;29;20060;-80
2022/07/13 04:56:39;;;;;;;1.23;1.02;;;24.20;96.70;;;;;;4871626;29;20437;-79
2022/07/13 04:59:07;;;;;;;3.83;1.48;;;24.10;96.70;;;;;;4870982;29;20048;-79
2022/07/13 05:01:35;;;;;;;2.95;1.13;;;24.10;96.70;;;;;;4872482;29;20106;-80
2022/07/13 05:04:06;;;;;;;2.80;1.10;;;24.00;96.70;;;;;;4870838;29;20049;-80
2022/07/13 05:06:34;;;;;;;2.45;1.08;;;24.00;96.70;;;;;;4873368;29;20057;-81
2022/07/13 05:09:05;;;;;;;3.47;1.58;;;24.00;96.70;;;;;;4854757;29;20045;-79
2022/07/13 05:11:33;;;;;;;2.85;1.30;;;24.20;96.70;;;;;;4862001;29;20055;-81
2022/07/13 05:14:01;;;;;;;4.38;1.40;;;24.20;96.70;;;;;;4870408;29;20080;-81
2022/07/13 05:16:30;;;;;;;3.80;1.30;;;24.40;96.70;;;;;;4886459;29;20056;-80
2022/07/13 05:19:01;;;;;;;2.28;1.33;;;24.50;96.70;;;;;;4865226;29;20049;-81
2022/07/13 05:21:35;;;;;;;2.35;1.13;;;24.60;96.70;;;;;;4870943;29;20057;-78
2022/07/13 05:24:04;;;;;;;3.30;1.23;;;24.60;96.70;;;;;;4871158;29;20084;-78
2022/07/13 05:26:34;;;;;;;2.90;1.40;;;24.60;96.70;;;;;;4855220;29;20060;-78
2022/07/13 05:29:04;;;;;;;2.63;1.17;;;24.50;96.70;;;;;;4869266;29;20461;-77
2022/07/13 05:31:33;;;;;;;2.33;1.33;;;24.60;96.70;;;;;;4870434;29;20064;-79
2022/07/13 05:34:02;;;;;;;5.25;1.75;;;24.80;96.70;;;;;;4889913;29;20465;-78
2022/07/13 05:36:37;;;;;;;3.83;1.35;;;24.90;96.70;;;;;;4871043;29;20053;-80
2022/07/13 05:39:05;;;;;;;2.25;1.75;;;24.80;96.70;;;;;;4870767;29;20063;-79
2022/07/13 05:41:33;;;;;;;5.28;1.70;;;24.70;96.70;;;;;;4869389;29;20045;-80
2022/07/13 05:44:01;;;;;;;3.42;1.60;;;24.70;96.70;;;;;;4871160;29;20100;-80
2022/07/13 05:46:31;;;;;;;2.97;1.67;;;24.90;96.70;;;;;;4871012;29;20606;-79
2022/07/13 05:48:59;;;;;;;2.20;1.33;;;25.00;96.70;;;;;;4871162;29;20053;-79
2022/07/13 05:51:27;;;;;;;2.38;1.38;;;25.00;96.70;;;;;;4857442;29;20049;-82
2022/07/13 05:54:05;;;;;;;4.13;1.90;;;24.90;96.70;;;;;;4882978;29;20072;-78
2022/07/13 05:56:53;;;;;;;5.00;1.60;;;24.80;96.70;;;;;;4873550;29;20048;-81
2022/07/13 05:59:21;;;;;;;4.13;1.50;;;25.00;96.70;;;;;;4878787;29;20109;-80
2022/07/13 06:01:49;;;;;;;2.97;1.60;;;25.10;96.70;;;;;;4872723;29;20644;-81
2022/07/13 06:04:17;;;;;;;7.47;1.73;;;25.20;96.70;;;;;;4869295;29;20049;-81
2022/07/13 06:06:46;;;;;;;3.28;1.52;;;25.20;96.70;;;;;;4872339;29;20068;-80
2022/07/13 06:09:15;;;;;;;4.60;1.98;;;25.20;96.70;;;;;;4857276;29;20723;-82
2022/07/13 06:11:46;;;;;;;9.90;2.33;;;25.20;96.70;;;;;;4871083;29;20087;-79
2022/07/13 06:14:14;;;;;;;4.95;1.88;;;25.20;96.70;;;;;;4869544;29;20081;-80
2022/07/13 06:16:42;;;;;;;3.88;1.92;;;25.20;96.70;;;;;;4870991;29;20041;-80
2022/07/13 06:19:10;;;;;;;5.05;1.80;;;25.20;96.70;;;;;;4871073;29;20098;-80
2022/07/13 06:21:38;;;;;;;4.22;2.00;;;25.40;96.70;;;;;;4872234;29;20602;-80
2022/07/13 06:24:07;;;;;;;6.25;1.88;;;25.50;96.70;;;;;;4869180;29;20107;-80
2022/07/13 06:26:36;;;;;;;2.30;1.60;;;25.60;96.70;;;;;;4870925;29;20045;-79
2022/07/13 06:29:05;;;;;;;2.92;1.48;;;25.70;96.70;;;;;;4871328;29;20049;-81
2022/07/13 06:31:34;;;;;;;2.40;1.60;;;25.70;96.70;;;;;;4869419;29;20052;-81
2022/07/13 06:34:03;;;;;;;3.67;1.38;;;25.80;96.70;;;;;;4871379;29;20528;-81
2022/07/13 06:36:30;;;;;;;4.63;1.40;;;25.80;96.70;;;;;;4872636;29;20041;-80
2022/07/13 06:38:58;;;;;;;3.20;1.52;;;25.80;96.70;;;;;;4867914;29;20053;-80
2022/07/13 06:41:26;;;;;;;5.25;1.20;;;25.90;96.70;;;;;;4870750;29;20045;-78
2022/07/13 06:43:56;;;;;;;4.70;2.00;;;26.00;96.70;;;;;;4866069;29;20150;-81
2022/07/13 06:46:24;;;;;;;2.10;1.42;;;26.00;96.70;;;;;;4872857;29;20248;-81
2022/07/13 06:48:53;;;;;;;4.63;1.77;;;26.10;96.70;;;;;;4866637;29;20070;-80
2022/07/13 06:51:22;;;;;;;3.38;1.50;;;26.20;96.70;;;;;;4872010;29;20124;-80
2022/07/13 06:53:50;;;;;;;3.03;1.50;;;26.20;96.70;;;;;;4870505;29;20041;-80
2022/07/13 06:56:18;;;;;;;4.78;1.50;;;26.20;96.70;;;;;;4885250;29;20068;-80
2022/07/13 06:58:46;;;;;;;1.42;1.20;;;26.30;96.70;;;;;;4884927;29;20503;-80
2022/07/13 07:01:16;;;;;;;4.43;1.67;;;26.30;96.70;;;;;;4869586;29;20053;-80
2022/07/13 07:03:44;;;;;;;2.60;1.45;;;26.30;96.70;;;;;;4871535;29;20267;-80
2022/07/13 07:06:12;;;;;;;3.42;1.25;;;26.30;96.70;;;;;;4869659;29;20523;-80
2022/07/13 07:08:40;;;;;;;3.95;1.42;;;26.40;96.70;;;;;;4866242;29;20052;-81
2022/07/13 07:11:07;;;;;;;4.53;1.58;;;26.50;96.70;;;;;;4852695;29;20064;-79
2022/07/13 07:13:35;;;;;;;2.33;1.40;;;26.50;96.70;;;;;;4884629;29;20573;-80
2022/07/13 07:16:04;;;;;;;7.65;1.70;;;26.60;96.70;;;;;;4869442;29;20049;-80
2022/07/13 07:18:33;;;;;;;3.20;1.52;;;26.70;96.70;;;;;;4870713;29;20041;-80
2022/07/13 07:21:01;;;;;;;4.63;1.58;;;26.80;96.70;;;;;;4870139;29;20251;-79
2022/07/13 07:23:29;;;;;;;4.10;1.17;;;26.90;96.70;;;;;;4871556;29;20706;-81
2022/07/13 07:26:00;;;;;;;2.67;1.30;;;27.10;96.70;;;;;;4871623;29;21168;-84
2022/07/13 07:28:28;;;;;;;5.32;1.40;;;27.20;96.70;;;;;;4871258;29;20608;-81
2022/07/13 07:30:56;;;;;;;5.07;1.52;;;27.20;96.70;;;;;;4856535;29;20077;-82
2022/07/13 07:33:23;;;;;;;7.05;1.92;;;27.30;96.70;;;;;;4871889;29;20049;-83
2022/07/13 07:35:53;;;;;;;5.05;1.40;;;27.50;96.70;;;;;;4872204;29;20053;-82
2022/07/13 07:38:21;;;;;;;3.70;1.30;;;27.70;96.70;;;;;;4889687;29;20053;-82
2022/07/13 07:40:49;;;;;;;2.40;1.25;;;27.90;96.70;;;;;;4891132;29;20437;-83
2022/07/13 07:43:17;;;;;;;3.70;1.10;;;28.00;96.70;;;;;;4873739;29;20060;-83
2022/07/13 07:45:45;;;;;;;5.55;1.73;;;28.10;96.70;;;;;;4888949;29;20052;-80
2022/07/13 07:48:13;;;;;;;4.55;1.35;;;28.20;96.70;;;;;;4888474;29;20089;-82
2022/07/13 07:50:40;;;;;;;2.55;1.30;;;28.10;96.70;;;;;;4874652;29;20072;-80
2022/07/13 07:53:11;;;;;;;3.13;1.40;;;28.10;96.70;;;;;;4872806;29;20072;-80
2022/07/13 07:55:39;;;;;;;3.60;1.10;;;28.10;96.70;;;;;;4873646;29;20033;-80
2022/07/13 07:58:08;;;;;;;1.20;1.10;;;28.30;96.70;;;;;;4870950;29;20526;-81
2022/07/13 08:00:37;;;;;;;2.40;1.30;;;28.50;96.70;;;;;;4872190;29;20053;-79
2022/07/13 08:03:05;;;;;;;3.88;1.45;;;28.60;96.70;;;;;;4877549;29;20508;-82
2022/07/13 08:05:33;;;;;;;1.38;1.27;;;28.70;96.70;;;;;;4873331;29;20547;-81
2022/07/13 08:08:01;;;;;;;4.90;1.23;;;28.80;96.70;;;;;;4873902;29;20041;-82
2022/07/13 08:10:31;;;;;;;3.90;1.50;;;28.90;96.70;;;;;;4872611;29;20500;-80
2022/07/13 08:13:03;;;;;;;3.65;1.10;;;28.90;96.70;;;;;;4854256;29;20064;-80
2022/07/13 08:15:33;;;;;;;2.97;1.33;;;29.00;96.70;;;;;;4885427;29;20144;-79
2022/07/13 08:18:01;;;;;;;4.25;1.50;;;29.00;96.70;;;;;;4873669;29;20052;-79
2022/07/13 08:20:30;;;;;;;2.75;1.35;;;29.00;96.70;;;;;;4865838;29;20560;-81
2022/07/13 08:22:58;;;;;;;2.25;1.23;;;29.10;96.70;;;;;;4872931;29;20160;-81
2022/07/13 08:25:27;;;;;;;1.85;1.00;;;29.10;96.70;;;;;;4872812;29;20132;-78
2022/07/13 08:27:58;;;;;;;5.35;1.20;;;29.10;96.70;;;;;;4856949;29;20081;-79
2022/07/13 08:30:26;;;;;;;3.03;1.05;;;29.30;96.70;;;;;;4869810;29;20057;-79
2022/07/13 08:32:54;;;;;;;3.88;1.50;;;29.20;96.70;;;;;;4871933;29;20059;-75
2022/07/13 08:40:56;;;;;;;2.45;0.80;;;29.40;96.70;;;;;;4871993;29;20057;-75
2022/07/13 08:43:26;;;;;;;2.72;1.20;;;29.40;96.30;;;;;;4865911;29;20077;-78
2022/07/13 08:45:54;;;;;;;1.50;1.02;;;29.50;95.90;;;;;;4871644;29;20064;-77
2022/07/13 08:48:31;;;;;;;2.47;1.17;;;29.60;96.20;;;;;;4872344;29;20069;-80
2022/07/13 08:51:00;;;;;;;1.85;1.00;;;29.70;96.40;;;;;;4872854;29;20053;-78
2022/07/13 08:53:28;;;;;;;2.88;0.90;;;29.60;96.40;;;;;;4872016;29;20083;-80
2022/07/13 08:55:57;;;;;;;3.13;0.80;;;29.60;96.10;;;;;;4873510;29;20049;-81
2022/07/13 08:58:26;;;;;;;2.88;1.63;;;29.70;96.70;;;;;;4855887;29;20101;-80
2022/07/13 09:00:54;;;;;;;3.50;1.10;;;29.80;96.10;;;;;;4872888;29;20061;-79
2022/07/13 09:03:22;;;;;;;1.60;1.00;;;29.70;95.80;;;;;;4870330;29;20045;-82
2022/07/13 09:05:51;;;;;;;2.83;1.17;;;29.80;95.90;;;;;;4873508;29;20061;-79
2022/07/13 09:08:19;;;;;;;3.13;1.10;;;30.20;94.80;;;;;;4869818;29;20462;-76
2022/07/13 09:10:58;;;;;;;6.53;1.52;;;30.20;94.80;;;;;;4871511;29;20547;-76
2022/07/13 09:13:41;;;;;;;2.97;1.35;;;30.30;95.30;;;;;;4871533;29;20056;-77
2022/07/13 09:16:13;;;;;;;4.45;1.20;;;30.50;94.40;;;;;;4872657;29;20069;-78
2022/07/13 09:18:42;;;;;;;2.85;1.15;;;30.60;93.70;;;;;;4882734;29;20509;-78
2022/07/13 09:21:10;;;;;;;2.38;1.17;;;30.70;92.50;;;;;;4873371;29;20053;-77
2022/07/13 09:23:39;;;;;;;3.67;1.20;;;30.60;92.80;;;;;;4885557;29;20056;-78
2022/07/13 09:26:07;;;;;;;2.33;0.90;;;30.60;92.40;;;;;;4871318;29;20148;-79
2022/07/13 09:28:45;;;;;;;2.50;1.00;;;30.60;91.20;;;;;;4870960;29;20496;-83
2022/07/13 09:31:14;;;;;;;2.90;0.90;;;30.60;90.80;;;;;;4875764;29;20500;-83
2022/07/13 09:33:45;;;;;;;1.20;1.05;;;30.90;90.30;;;;;;4885482;29;20563;-79
2022/07/13 09:36:15;;;;;;;1.90;1.20;;;31.00;88.50;;;;;;4856285;29;20519;-79
2022/07/13 09:38:45;;;;;;;2.78;1.13;;;31.00;89.30;;;;;;4869147;29;20057;-82
2022/07/13 09:41:21;;;;;;;1.40;1.00;;;31.10;90.00;;;;;;4856625;29;20045;-80
2022/07/13 09:46:56;;;;;;;3.70;0.85;;;31.20;89.80;;;;;;4871212;29;20049;-79
2022/07/13 09:49:39;;;;;;;1.45;1.13;;;31.00;89.60;;;;;;4855951;29;20105;-80
2022/07/13 09:52:09;;;;;;;2.10;1.17;;;30.80;89.60;;;;;;4872216;29;20041;-76
2022/07/13 09:54:40;;;;;;;3.85;1.38;;;30.80;88.90;;;;;;4871408;29;20037;-80
2022/07/13 09:57:11;;;;;;;1.27;0.80;;;30.90;88.80;;;;;;4883749;29;20061;-75
2022/07/13 09:59:43;;;;;;;2.03;0.93;;;30.80;88.40;;;;;;4870496;29;20134;-76
2022/07/13 10:02:14;;;;;;;4.13;1.10;;;31.00;87.80;;;;;;4875431;29;20052;-76
2022/07/13 10:04:43;;;;;;;1.33;1.00;;;30.90;87.90;;;;;;4874191;29;20533;-77
2022/07/13 10:07:20;;;;;;;1.17;0.70;;;30.90;88.30;;;;;;4868578;29;20055;-77
2022/07/13 10:09:49;;;;;;;1.77;0.98;;;31.10;87.40;;;;;;4870030;29;20128;-78
2022/07/13 10:12:20;;;;;;;1.67;0.98;;;31.60;86.00;;;;;;4871615;29;20408;-77
2022/07/13 10:14:53;;;;;;;3.13;0.90;;;31.80;85.80;;;;;;4870952;29;20094;-79
2022/07/13 10:17:23;;;;;;;2.05;1.00;;;31.60;86.20;;;;;;4869788;29;20472;-80
2022/07/13 10:20:02;;;;;;;4.20;1.10;;;31.70;84.50;;;;;;4871467;29;20045;-80
2022/07/13 10:22:35;;;;;;;3.58;0.80;;;31.60;83.80;;;;;;4870840;29;20069;-79
2022/07/13 10:25:05;;;;;;;3.17;1.15;;;31.70;84.20;;;;;;4868973;29;20487;-80
2022/07/13 10:27:36;;;;;;;1.83;1.30;;;31.80;84.90;;;;;;4870072;29;20057;-80
2022/07/13 10:30:09;;;;;;;2.03;0.98;;;31.70;84.70;;;;;;4869929;29;20049;-81
2022/07/13 10:32:39;;;;;;;2.05;1.10;;;31.90;84.70;;;;;;4872111;29;20081;-78
2022/07/13 10:35:10;;;;;;;1.02;0.82;;;31.70;84.70;;;;;;4870387;29;20061;-80
2022/07/13 10:38:17;;;;;;;3.65;0.90;;;31.70;84.40;;;;;;4871887;29;20133;-80
2022/07/13 10:40:49;;;;;;;2.15;1.15;;;32.00;84.30;;;;;;4871349;29;20270;-80
2022/07/13 10:43:20;;;;;;;1.17;0.98;;;32.50;83.50;;;;;;4868919;29;20084;-81
2022/07/13 10:45:52;;;;;;;1.13;0.98;;;32.70;82.90;;;;;;4869823;29;20083;-80
2022/07/13 10:48:45;;;;;;;1.90;0.90;;;32.70;82.50;;;;;;4868307;29;20045;-79
2022/07/13 10:51:23;;;;;;;1.05;0.95;;;32.90;82.00;;;;;;4848031;29;20420;-79
2022/07/13 10:54:09;;;;;;;0.93;0.70;;;32.70;82.20;;;;;;4852707;29;20061;-79
2022/07/13 10:57:13;;;;;;;1.58;0.95;;;32.50;82.70;;;;;;4869738;29;20097;-79
2022/07/13 10:59:51;;;;;;;1.33;0.80;;;32.50;82.30;;;;;;4868249;29;20531;-78
2022/07/13 11:02:44;;;;;;;2.35;0.90;;;32.50;81.90;;;;;;4870799;29;20073;-78
2022/07/13 11:05:17;;;;;;;3.30;1.05;;;32.70;81.60;;;;;;4870481;29;20124;-78
2022/07/13 11:07:48;;;;;;;2.65;1.17;;;33.10;82.00;;;;;;4868345;29;20092;-78
2022/07/13 11:10:22;;;;;;;2.80;0.85;;;33.20;80.70;;;;;;4869730;29;20081;-78
2022/07/13 11:13:02;;;;;;;1.63;0.90;;;32.90;81.10;;;;;;4870617;29;20872;-79
2022/07/13 11:15:46;;;;;;;3.00;0.90;;;32.70;80.50;;;;;;4870971;29;20885;-79
2022/07/13 11:18:32;;;;;;;0.95;0.85;;;32.70;79.50;;;;;;4866389;29;20053;-78
2022/07/13 11:21:08;;;;;;;1.42;0.90;;;33.10;79.30;;;;;;4855966;29;20412;-78
2022/07/13 11:26:55;;;;;;;2.70;1.00;;;33.40;79.40;;;;;;4873013;29;20077;-78
2022/07/13 11:29:34;;;;;;;6.15;1.23;;;33.70;79.30;;;;;;4862433;29;20555;-78
2022/07/13 11:32:05;;;;;;;1.00;0.93;;;33.70;79.30;;;;;;4876593;29;20049;-78
2022/07/13 11:34:37;;;;;;;1.45;0.88;;;33.90;78.60;;;;;;4869361;29;20100;-78
2022/07/13 11:37:06;;;;;;;1.73;1.00;;;34.10;77.60;;;;;;4868801;29;20053;-78
2022/07/13 11:39:35;;;;;;;2.03;0.75;;;34.20;76.60;;;;;;4868838;29;20045;-78
2022/07/13 11:42:09;;;;;;;1.30;0.70;;;34.20;77.00;;;;;;4869281;29;20071;-78
2022/07/13 11:44:40;;;;;;;1.67;0.90;;;34.30;76.00;;;;;;4870702;29;20145;-78
2022/07/13 11:47:09;;;;;;;0.82;0.80;;;34.40;76.40;;;;;;4869229;29;20049;-79
2022/07/13 11:49:47;;;;;;;3.95;0.70;;;34.40;77.10;;;;;;4870733;29;20048;-78
2022/07/13 11:52:20;;;;;;;2.53;0.88;;;34.20;77.50;;;;;;4869352;29;20740;-78
2022/07/13 11:54:56;;;;;;;2.08;1.00;;;34.50;77.20;;;;;;4881489;29;20061;-79
2022/07/13 11:57:26;;;;;;;1.85;1.17;;;34.80;75.80;;;;;;4864323;29;20044;-79
2022/07/13 12:00:00;;;;;;;2.78;0.90;;;34.90;76.20;;;;;;4870795;29;20049;-78
2022/07/13 12:02:38;;;;;;;2.10;0.65;;;34.80;75.60;;;;;;4873813;29;20052;-77
2022/07/13 12:05:09;;;;;;;1.02;0.70;;;34.90;76.40;;;;;;4869121;29;20052;-77
2022/07/13 12:07:44;;;;;;;1.30;0.80;;;34.90;76.60;;;;;;4876431;29;20059;-77
2022/07/13 12:10:14;;;;;;;2.22;1.10;;;34.70;76.60;;;;;;4868260;29;20589;-79
2022/07/13 12:12:42;;;;;;;1.95;0.98;;;34.90;77.10;;;;;;4871016;29;20053;-77
2022/07/13 12:15:11;;;;;;;2.15;1.10;;;34.70;76.60;;;;;;4873787;29;20500;-80
2022/07/13 12:17:44;;;;;;;1.98;0.90;;;34.50;77.00;;;;;;4870192;29;20724;-78
2022/07/13 12:20:16;;;;;;;1.83;1.13;;;34.40;76.00;;;;;;4868966;29;20459;-81
2022/07/13 12:22:50;;;;;;;1.70;0.80;;;34.50;76.50;;;;;;4886595;29;20057;-78
2022/07/13 12:25:26;;;;;;;2.15;0.90;;;34.40;76.40;;;;;;4871912;29;20128;-79
2022/07/13 12:27:59;;;;;;;1.45;0.90;;;34.20;76.20;;;;;;4885916;29;20496;-80
2022/07/13 12:30:28;;;;;;;1.95;1.20;;;34.30;76.40;;;;;;4875816;29;21063;-79
2022/07/13 12:32:57;;;;;;;2.85;1.00;;;34.30;76.70;;;;;;4873667;29;20044;-79
2022/07/13 12:35:30;;;;;;;4.15;1.05;;;34.30;76.80;;;;;;4875940;29;20147;-78
2022/07/13 12:37:59;;;;;;;1.73;0.90;;;34.50;76.50;;;;;;4874509;29;20060;-79
2022/07/13 12:40:41;;;;;;;2.35;0.82;;;34.40;76.00;;;;;;4876226;29;20551;-79
2022/07/13 12:43:18;;;;;;;3.25;1.05;;;34.40;75.70;;;;;;4872416;29;20068;-78
2022/07/13 12:45:48;;;;;;;2.05;0.80;;;34.70;75.90;;;;;;4870133;29;20144;-78
2022/07/13 12:48:18;;;;;;;1.25;0.82;;;35.00;76.30;;;;;;4887289;29;20085;-79
2022/07/13 12:51:01;;;;;;;2.13;0.98;;;34.80;75.30;;;;;;4872618;29;20570;-78
2022/07/13 12:53:46;;;;;;;2.55;1.00;;;34.60;76.40;;;;;;4872514;29;20137;-77
2022/07/13 12:56:15;;;;;;;5.15;1.30;;;34.80;76.00;;;;;;4877113;29;20049;-78
2022/07/13 12:58:44;;;;;;;2.97;1.08;;;35.10;76.30;;;;;;4872257;29;20041;-79
2022/07/13 13:01:27;;;;;;;2.42;0.98;;;35.50;75.30;;;;;;4872982;29;20064;-78
2022/07/13 13:03:55;;;;;;;3.42;1.08;;;35.50;74.90;;;;;;4868047;29;20120;-79
2022/07/13 13:06:33;;;;;;;1.30;1.13;;;35.40;75.70;;;;;;4872452;29;20059;-76
2022/07/13 13:09:05;;;;;;;1.58;0.80;;;35.40;74.70;;;;;;4870450;29;20045;-76
2022/07/13 13:11:34;;;;;;;0.82;0.82;;;35.30;74.50;;;;;;4871708;29;20049;-76
2022/07/13 13:14:03;;;;;;;3.20;1.05;;;35.00;74.40;;;;;;4888713;29;20560;-75
2022/07/13 13:16:32;;;;;;;1.20;0.90;;;35.30;75.00;;;;;;4886959;29;20057;-76